Aérodrome :
LOGIN :

S'inscrire | Disclaimer

   EN    FR    IT 

 










Légende :    VFR   VFR Marginal   IFR   IFR Intensif   IFR Très Intensif
Visi : 
Plafond : 
>= 8 km
>= 3000ft
5 à 8 km
1000 à 3000 ft
1500m à 5 km
500 à 1000 ft
800 à 1500m
200 à 500 ft
< 800m
< 200 ft
Symboles :   Orages  Brouillard  Fortes neiges  Fortes précipitations  Vent > 20 kt
SIGMETs :   Divers  Orages  Givrage  Turbulence  Onde Orograph.  Cendres Volcan.







- Altitude de l'aérodrome : 144 ft
- Code IATA : PGF
- Voir les cartes d'approche


LFMP - Perpignan

DERNIER METAR :
  • 172230Z AUTO 31004KT 9999 FEW040 BKN060 OVC074 17/16 Q1015

METARs EXPIRÉS :
  • 172200Z AUTO VRB02KT 9999 BKN039 BKN047 BKN072 17/16 Q1015
  • 172130Z AUTO 00000KT 9999 FEW041 SCT049 BKN058 17/16 Q1015 TEMPO 34015G25KT 1200 SHRA BR BKN006 BKN013TCU
  • 172100Z AUTO 28002KT 9999 FEW043 BKN050 BKN060 17/16 Q1015 TEMPO 34015G25KT 1200 SHRA BR BKN006 BKN013TCU
  • 172030Z AUTO 26002KT 9999 FEW037 SCT048 OVC080 17/16 Q1015 TEMPO 34015G25KT 1200 SHRA BR BKN006 BKN013TCU
  • 172000Z AUTO 26001KT 9999 BKN035 BKN044 BKN052 17/16 Q1015 TEMPO 34015G25KT 1200 SHRA BR BKN006 BKN013TCU
  • 171930Z AUTO 28001KT 9999 FEW037 SCT047 BKN074 17/16 Q1015 TEMPO 34015G25KT 1200 SHRA BR BKN006 BKN013TCU

TAF TAF LFMP
Valide du 17 à 15h jusqu'au 18 à 15h UTC


171400Z 1715/1815 VRB02KT 9999 BKN030
TEMPO 1720/1809 34015G25KT 1200 SHRA BR BKN006 BKN013TCU
ATIS : +33 4 68 63 75 12
Pas de NOTAMs connus pour ce terrain.



MET'MAP, la Météo Aéronautique d'un coup d'oeil ! - Copyright ORBIFLY Décembre 2007 - Disclaimer

ORBIFLY MET'MAP TEAM :

Programmation & Développement : Alexandra Zaïnal
Conception & Développement : Baudouin d'Aumeries
Co-Programmation & Développement : Marc-Olivier Méhu
Soutien technique & logistique : Manuel Goepfert

Contact : metmap@orbifly.com




SOURCES & CREDITS :

   NOAA